sensor_id;sensor_type;location;lat;lon;timestamp;P1;durP1;ratioP1;P2;durP2;ratioP2
10659;SDS011;5378;53.206;13.316;2023-11-21T00:01:06;14.00;;;5.07;;
10659;SDS011;5378;53.206;13.316;2023-11-21T00:03:55;9.70;;;6.10;;
10659;SDS011;5378;53.206;13.316;2023-11-21T00:06:43;11.63;;;5.93;;
10659;SDS011;5378;53.206;13.316;2023-11-21T00:09:32;8.43;;;5.33;;
10659;SDS011;5378;53.206;13.316;2023-11-21T00:12:20;15.13;;;6.53;;
10659;SDS011;5378;53.206;13.316;2023-11-21T00:15:08;10.60;;;6.00;;
10659;SDS011;5378;53.206;13.316;2023-11-21T00:17:56;12.20;;;6.20;;
10659;SDS011;5378;53.206;13.316;2023-11-21T00:20:43;12.70;;;6.37;;
10659;SDS011;5378;53.206;13.316;2023-11-21T00:23:32;13.13;;;5.93;;
10659;SDS011;5378;53.206;13.316;2023-11-21T00:26:19;9.07;;;5.47;;
10659;SDS011;5378;53.206;13.316;2023-11-21T00:29:15;12.17;;;5.70;;
10659;SDS011;5378;53.206;13.316;2023-11-21T00:32:03;11.63;;;5.87;;
10659;SDS011;5378;53.206;13.316;2023-11-21T00:34:51;11.73;;;6.30;;
10659;SDS011;5378;53.206;13.316;2023-11-21T00:37:38;18.27;;;6.67;;
10659;SDS011;5378;53.206;13.316;2023-11-21T00:40:26;12.20;;;6.67;;
10659;SDS011;5378;53.206;13.316;2023-11-21T00:43:13;16.27;;;7.00;;
10659;SDS011;5378;53.206;13.316;2023-11-21T00:46:03;13.73;;;6.27;;
10659;SDS011;5378;53.206;13.316;2023-11-21T00:48:51;16.80;;;8.10;;
10659;SDS011;5378;53.206;13.316;2023-11-21T00:51:39;14.23;;;7.90;;
10659;SDS011;5378;53.206;13.316;2023-11-21T00:54:26;20.23;;;8.27;;
10659;SDS011;5378;53.206;13.316;2023-11-21T00:57:15;21.73;;;9.07;;
10659;SDS011;5378;53.206;13.316;2023-11-21T01:00:02;36.80;;;7.80;;
10659;SDS011;5378;53.206;13.316;2023-11-21T01:02:54;13.90;;;6.93;;
10659;SDS011;5378;53.206;13.316;2023-11-21T01:05:42;13.10;;;6.10;;
10659;SDS011;5378;53.206;13.316;2023-11-21T01:08:29;13.03;;;6.97;;
10659;SDS011;5378;53.206;13.316;2023-11-21T01:11:17;19.13;;;7.30;;
10659;SDS011;5378;53.206;13.316;2023-11-21T01:14:05;11.47;;;6.20;;
10659;SDS011;5378;53.206;13.316;2023-11-21T01:16:54;18.87;;;8.03;;
10659;SDS011;5378;53.206;13.316;2023-11-21T01:19:41;14.67;;;6.60;;
10659;SDS011;5378;53.206;13.316;2023-11-21T01:22:28;13.60;;;6.50;;
10659;SDS011;5378;53.206;13.316;2023-11-21T01:25:15;19.63;;;8.30;;
10659;SDS011;5378;53.206;13.316;2023-11-21T01:28:03;18.20;;;7.27;;
10659;SDS011;5378;53.206;13.316;2023-11-21T01:30:51;11.70;;;6.33;;
10659;SDS011;5378;53.206;13.316;2023-11-21T01:33:42;11.70;;;5.97;;
10659;SDS011;5378;53.206;13.316;2023-11-21T01:36:29;15.47;;;6.80;;
10659;SDS011;5378;53.206;13.316;2023-11-21T01:39:18;14.13;;;6.47;;
10659;SDS011;5378;53.206;13.316;2023-11-21T01:42:09;13.03;;;6.97;;
10659;SDS011;5378;53.206;13.316;2023-11-21T01:44:58;11.93;;;7.50;;
10659;SDS011;5378;53.206;13.316;2023-11-21T01:47:46;21.43;;;7.40;;
10659;SDS011;5378;53.206;13.316;2023-11-21T01:50:33;13.80;;;6.30;;
10659;SDS011;5378;53.206;13.316;2023-11-21T01:53:20;12.43;;;6.90;;
10659;SDS011;5378;53.206;13.316;2023-11-21T01:56:08;14.43;;;7.57;;
10659;SDS011;5378;53.206;13.316;2023-11-21T01:58:56;16.70;;;7.43;;
10659;SDS011;5378;53.206;13.316;2023-11-21T02:01:43;12.37;;;6.77;;
10659;SDS011;5378;53.206;13.316;2023-11-21T02:04:33;13.60;;;6.23;;
10659;SDS011;5378;53.206;13.316;2023-11-21T02:07:21;18.17;;;8.00;;
10659;SDS011;5378;53.206;13.316;2023-11-21T02:10:09;14.70;;;7.57;;
10659;SDS011;5378;53.206;13.316;2023-11-21T02:13:00;16.67;;;7.03;;
10659;SDS011;5378;53.206;13.316;2023-11-21T02:15:48;19.47;;;7.77;;
10659;SDS011;5378;53.206;13.316;2023-11-21T02:18:37;18.93;;;7.43;;
10659;SDS011;5378;53.206;13.316;2023-11-21T02:21:26;19.30;;;8.23;;
10659;SDS011;5378;53.206;13.316;2023-11-21T02:24:16;16.80;;;6.87;;
10659;SDS011;5378;53.206;13.316;2023-11-21T02:27:05;16.03;;;8.30;;
10659;SDS011;5378;53.206;13.316;2023-11-21T02:29:52;17.33;;;9.20;;
10659;SDS011;5378;53.206;13.316;2023-11-21T02:32:40;20.40;;;8.20;;
10659;SDS011;5378;53.206;13.316;2023-11-21T02:35:28;19.40;;;8.90;;
10659;SDS011;5378;53.206;13.316;2023-11-21T02:38:16;15.20;;;6.90;;
10659;SDS011;5378;53.206;13.316;2023-11-21T02:41:05;20.27;;;7.83;;
10659;SDS011;5378;53.206;13.316;2023-11-21T02:43:52;17.80;;;8.50;;
10659;SDS011;5378;53.206;13.316;2023-11-21T02:46:40;17.43;;;8.03;;
10659;SDS011;5378;53.206;13.316;2023-11-21T02:49:27;19.33;;;7.70;;
10659;SDS011;5378;53.206;13.316;2023-11-21T02:52:14;21.00;;;7.17;;
10659;SDS011;5378;53.206;13.316;2023-11-21T02:55:02;16.30;;;8.10;;
10659;SDS011;5378;53.206;13.316;2023-11-21T02:57:51;21.57;;;8.13;;
10659;SDS011;5378;53.206;13.316;2023-11-21T03:00:39;14.50;;;7.47;;
10659;SDS011;5378;53.206;13.316;2023-11-21T03:03:27;13.20;;;6.13;;
10659;SDS011;5378;53.206;13.316;2023-11-21T03:06:14;13.53;;;6.63;;
10659;SDS011;5378;53.206;13.316;2023-11-21T03:09:01;13.70;;;7.07;;
10659;SDS011;5378;53.206;13.316;2023-11-21T03:11:49;12.43;;;5.83;;
10659;SDS011;5378;53.206;13.316;2023-11-21T03:14:38;12.10;;;6.17;;
10659;SDS011;5378;53.206;13.316;2023-11-21T03:17:25;13.00;;;5.50;;
10659;SDS011;5378;53.206;13.316;2023-11-21T03:20:12;11.40;;;5.60;;
10659;SDS011;5378;53.206;13.316;2023-11-21T03:22:59;12.73;;;5.97;;
10659;SDS011;5378;53.206;13.316;2023-11-21T03:25:46;12.87;;;5.53;;
10659;SDS011;5378;53.206;13.316;2023-11-21T03:28:33;13.70;;;5.93;;
10659;SDS011;5378;53.206;13.316;2023-11-21T03:31:22;13.17;;;6.80;;
10659;SDS011;5378;53.206;13.316;2023-11-21T03:34:14;13.97;;;5.37;;
10659;SDS011;5378;53.206;13.316;2023-11-21T03:37:03;10.67;;;6.30;;
10659;SDS011;5378;53.206;13.316;2023-11-21T03:39:51;10.67;;;6.00;;
10659;SDS011;5378;53.206;13.316;2023-11-21T03:42:38;16.30;;;6.80;;
10659;SDS011;5378;53.206;13.316;2023-11-21T03:45:26;15.30;;;6.80;;
10659;SDS011;5378;53.206;13.316;2023-11-21T03:48:14;15.13;;;6.03;;
10659;SDS011;5378;53.206;13.316;2023-11-21T03:51:01;13.63;;;7.00;;
10659;SDS011;5378;53.206;13.316;2023-11-21T03:53:49;16.77;;;7.30;;
10659;SDS011;5378;53.206;13.316;2023-11-21T03:56:36;13.53;;;7.10;;
10659;SDS011;5378;53.206;13.316;2023-11-21T03:59:23;16.33;;;7.50;;
10659;SDS011;5378;53.206;13.316;2023-11-21T04:02:10;15.33;;;6.07;;
10659;SDS011;5378;53.206;13.316;2023-11-21T04:04:58;14.17;;;6.20;;
10659;SDS011;5378;53.206;13.316;2023-11-21T04:07:46;16.13;;;6.60;;
10659;SDS011;5378;53.206;13.316;2023-11-21T04:10:32;11.80;;;6.40;;
10659;SDS011;5378;53.206;13.316;2023-11-21T04:13:20;16.47;;;7.73;;
10659;SDS011;5378;53.206;13.316;2023-11-21T04:16:07;12.40;;;7.10;;
10659;SDS011;5378;53.206;13.316;2023-11-21T04:18:55;16.10;;;6.30;;
10659;SDS011;5378;53.206;13.316;2023-11-21T04:21:43;19.63;;;6.93;;
10659;SDS011;5378;53.206;13.316;2023-11-21T04:24:31;16.20;;;6.33;;
10659;SDS011;5378;53.206;13.316;2023-11-21T04:27:18;12.83;;;7.00;;
10659;SDS011;5378;53.206;13.316;2023-11-21T04:30:06;16.10;;;7.50;;
10659;SDS011;5378;53.206;13.316;2023-11-21T04:32:55;18.47;;;6.50;;
10659;SDS011;5378;53.206;13.316;2023-11-21T04:35:42;17.30;;;7.00;;
10659;SDS011;5378;53.206;13.316;2023-11-21T04:38:31;16.83;;;6.30;;
10659;SDS011;5378;53.206;13.316;2023-11-21T04:41:18;11.40;;;6.20;;
10659;SDS011;5378;53.206;13.316;2023-11-21T04:44:05;14.93;;;5.73;;
10659;SDS011;5378;53.206;13.316;2023-11-21T04:46:52;9.43;;;5.97;;
10659;SDS011;5378;53.206;13.316;2023-11-21T04:49:41;17.10;;;6.27;;
10659;SDS011;5378;53.206;13.316;2023-11-21T04:52:29;13.27;;;5.50;;
10659;SDS011;5378;53.206;13.316;2023-11-21T04:55:17;24.17;;;5.60;;
10659;SDS011;5378;53.206;13.316;2023-11-21T04:58:05;11.70;;;5.33;;
10659;SDS011;5378;53.206;13.316;2023-11-21T05:00:53;18.67;;;6.77;;
10659;SDS011;5378;53.206;13.316;2023-11-21T05:03:40;22.80;;;6.30;;
10659;SDS011;5378;53.206;13.316;2023-11-21T05:06:27;9.17;;;5.43;;
10659;SDS011;5378;53.206;13.316;2023-11-21T05:09:14;16.80;;;6.27;;
10659;SDS011;5378;53.206;13.316;2023-11-21T05:12:03;12.27;;;6.20;;
10659;SDS011;5378;53.206;13.316;2023-11-21T05:14:51;11.77;;;5.60;;
10659;SDS011;5378;53.206;13.316;2023-11-21T05:17:38;12.30;;;6.17;;
10659;SDS011;5378;53.206;13.316;2023-11-21T05:20:27;9.57;;;5.33;;
10659;SDS011;5378;53.206;13.316;2023-11-21T05:23:15;10.27;;;5.07;;
10659;SDS011;5378;53.206;13.316;2023-11-21T05:26:01;9.90;;;5.40;;
10659;SDS011;5378;53.206;13.316;2023-11-21T05:28:50;13.93;;;6.40;;
10659;SDS011;5378;53.206;13.316;2023-11-21T05:31:37;12.20;;;5.97;;
10659;SDS011;5378;53.206;13.316;2023-11-21T05:34:24;9.27;;;5.63;;
10659;SDS011;5378;53.206;13.316;2023-11-21T05:37:12;8.80;;;4.77;;
10659;SDS011;5378;53.206;13.316;2023-11-21T05:39:59;11.50;;;5.93;;
10659;SDS011;5378;53.206;13.316;2023-11-21T05:42:51;18.90;;;6.03;;
10659;SDS011;5378;53.206;13.316;2023-11-21T05:45:39;11.67;;;5.50;;
10659;SDS011;5378;53.206;13.316;2023-11-21T05:48:26;13.93;;;5.70;;
10659;SDS011;5378;53.206;13.316;2023-11-21T05:51:13;9.93;;;5.60;;
10659;SDS011;5378;53.206;13.316;2023-11-21T05:54:00;11.17;;;6.33;;
10659;SDS011;5378;53.206;13.316;2023-11-21T05:56:47;11.30;;;5.10;;
10659;SDS011;5378;53.206;13.316;2023-11-21T05:59:35;12.93;;;5.00;;
10659;SDS011;5378;53.206;13.316;2023-11-21T06:02:23;15.20;;;6.90;;
10659;SDS011;5378;53.206;13.316;2023-11-21T06:05:11;11.13;;;6.27;;
10659;SDS011;5378;53.206;13.316;2023-11-21T06:07:58;15.43;;;6.87;;
10659;SDS011;5378;53.206;13.316;2023-11-21T06:10:46;10.30;;;6.50;;
10659;SDS011;5378;53.206;13.316;2023-11-21T06:13:35;10.03;;;5.70;;
10659;SDS011;5378;53.206;13.316;2023-11-21T06:16:22;10.37;;;5.60;;
10659;SDS011;5378;53.206;13.316;2023-11-21T06:19:10;15.73;;;6.10;;
10659;SDS011;5378;53.206;13.316;2023-11-21T06:21:57;10.57;;;5.70;;
10659;SDS011;5378;53.206;13.316;2023-11-21T06:24:44;16.07;;;6.73;;
10659;SDS011;5378;53.206;13.316;2023-11-21T06:27:31;11.30;;;5.50;;
10659;SDS011;5378;53.206;13.316;2023-11-21T06:30:18;12.53;;;5.70;;
10659;SDS011;5378;53.206;13.316;2023-11-21T06:33:07;13.27;;;5.73;;
10659;SDS011;5378;53.206;13.316;2023-11-21T06:35:55;14.77;;;5.40;;
10659;SDS011;5378;53.206;13.316;2023-11-21T06:38:42;10.70;;;6.17;;
10659;SDS011;5378;53.206;13.316;2023-11-21T06:41:31;9.43;;;5.23;;
10659;SDS011;5378;53.206;13.316;2023-11-21T06:44:18;10.73;;;5.20;;
10659;SDS011;5378;53.206;13.316;2023-11-21T06:47:06;8.93;;;4.33;;
10659;SDS011;5378;53.206;13.316;2023-11-21T06:49:53;8.53;;;4.80;;
10659;SDS011;5378;53.206;13.316;2023-11-21T06:52:41;9.70;;;4.77;;
10659;SDS011;5378;53.206;13.316;2023-11-21T06:55:29;10.93;;;4.60;;
10659;SDS011;5378;53.206;13.316;2023-11-21T06:58:16;8.77;;;5.10;;
10659;SDS011;5378;53.206;13.316;2023-11-21T07:01:03;9.30;;;4.57;;
10659;SDS011;5378;53.206;13.316;2023-11-21T07:03:51;9.40;;;4.37;;
10659;SDS011;5378;53.206;13.316;2023-11-21T07:06:38;10.87;;;5.17;;
10659;SDS011;5378;53.206;13.316;2023-11-21T07:09:27;8.37;;;4.10;;
10659;SDS011;5378;53.206;13.316;2023-11-21T07:12:14;11.63;;;5.60;;
10659;SDS011;5378;53.206;13.316;2023-11-21T07:15:01;16.37;;;5.03;;
10659;SDS011;5378;53.206;13.316;2023-11-21T07:17:51;11.10;;;5.00;;
10659;SDS011;5378;53.206;13.316;2023-11-21T07:20:39;10.43;;;5.30;;
10659;SDS011;5378;53.206;13.316;2023-11-21T07:23:26;9.10;;;5.80;;
10659;SDS011;5378;53.206;13.316;2023-11-21T07:26:15;13.37;;;6.13;;
10659;SDS011;5378;53.206;13.316;2023-11-21T07:29:02;19.00;;;6.00;;
10659;SDS011;5378;53.206;13.316;2023-11-21T07:31:49;9.50;;;5.80;;
10659;SDS011;5378;53.206;13.316;2023-11-21T07:34:36;11.07;;;5.73;;
10659;SDS011;5378;53.206;13.316;2023-11-21T07:37:23;9.33;;;4.67;;
10659;SDS011;5378;53.206;13.316;2023-11-21T07:40:11;10.47;;;5.60;;
10659;SDS011;5378;53.206;13.316;2023-11-21T07:43:00;10.70;;;5.17;;
10659;SDS011;5378;53.206;13.316;2023-11-21T07:45:47;14.00;;;6.17;;
10659;SDS011;5378;53.206;13.316;2023-11-21T07:48:34;12.77;;;6.93;;
10659;SDS011;5378;53.206;13.316;2023-11-21T07:51:22;12.80;;;5.90;;
10659;SDS011;5378;53.206;13.316;2023-11-21T07:54:09;16.43;;;6.30;;
10659;SDS011;5378;53.206;13.316;2023-11-21T07:56:56;9.80;;;6.17;;
10659;SDS011;5378;53.206;13.316;2023-11-21T07:59:45;12.53;;;6.13;;
10659;SDS011;5378;53.206;13.316;2023-11-21T08:02:32;14.47;;;6.27;;
10659;SDS011;5378;53.206;13.316;2023-11-21T08:05:20;12.07;;;6.70;;
10659;SDS011;5378;53.206;13.316;2023-11-21T08:08:09;15.13;;;7.90;;
10659;SDS011;5378;53.206;13.316;2023-11-21T08:10:57;14.83;;;6.67;;
10659;SDS011;5378;53.206;13.316;2023-11-21T08:13:46;15.87;;;7.80;;
10659;SDS011;5378;53.206;13.316;2023-11-21T08:16:34;13.67;;;7.80;;
10659;SDS011;5378;53.206;13.316;2023-11-21T08:19:21;16.70;;;7.37;;
10659;SDS011;5378;53.206;13.316;2023-11-21T08:22:11;29.80;;;10.40;;
10659;SDS011;5378;53.206;13.316;2023-11-21T08:24:58;20.97;;;9.50;;
10659;SDS011;5378;53.206;13.316;2023-11-21T08:27:45;22.80;;;9.30;;
10659;SDS011;5378;53.206;13.316;2023-11-21T08:30:32;16.43;;;8.00;;
10659;SDS011;5378;53.206;13.316;2023-11-21T08:33:21;18.67;;;8.97;;
10659;SDS011;5378;53.206;13.316;2023-11-21T08:36:09;17.20;;;8.30;;
10659;SDS011;5378;53.206;13.316;2023-11-21T08:38:57;16.03;;;8.13;;
10659;SDS011;5378;53.206;13.316;2023-11-21T08:41:44;26.47;;;7.70;;
10659;SDS011;5378;53.206;13.316;2023-11-21T08:44:31;16.53;;;7.30;;
10659;SDS011;5378;53.206;13.316;2023-11-21T08:47:18;14.27;;;7.30;;
10659;SDS011;5378;53.206;13.316;2023-11-21T08:50:07;14.73;;;7.23;;
10659;SDS011;5378;53.206;13.316;2023-11-21T08:52:55;13.73;;;7.00;;
10659;SDS011;5378;53.206;13.316;2023-11-21T08:55:42;10.83;;;6.53;;
10659;SDS011;5378;53.206;13.316;2023-11-21T08:58:30;12.87;;;5.77;;
10659;SDS011;5378;53.206;13.316;2023-11-21T09:01:18;7.77;;;4.63;;
10659;SDS011;5378;53.206;13.316;2023-11-21T09:04:05;6.20;;;4.07;;
10659;SDS011;5378;53.206;13.316;2023-11-21T09:06:53;11.13;;;4.90;;
10659;SDS011;5378;53.206;13.316;2023-11-21T09:09:40;10.50;;;4.30;;
10659;SDS011;5378;53.206;13.316;2023-11-21T09:12:27;12.10;;;5.47;;
10659;SDS011;5378;53.206;13.316;2023-11-21T09:15:15;7.53;;;4.87;;
10659;SDS011;5378;53.206;13.316;2023-11-21T09:18:02;14.90;;;4.93;;
10659;SDS011;5378;53.206;13.316;2023-11-21T09:20:50;11.83;;;5.30;;
10659;SDS011;5378;53.206;13.316;2023-11-21T09:23:39;9.73;;;4.90;;
10659;SDS011;5378;53.206;13.316;2023-11-21T09:26:27;8.87;;;4.37;;
10659;SDS011;5378;53.206;13.316;2023-11-21T09:29:15;7.70;;;4.20;;
10659;SDS011;5378;53.206;13.316;2023-11-21T09:32:02;15.13;;;4.67;;
10659;SDS011;5378;53.206;13.316;2023-11-21T09:34:52;7.37;;;4.10;;
10659;SDS011;5378;53.206;13.316;2023-11-21T09:37:41;10.07;;;4.40;;
10659;SDS011;5378;53.206;13.316;2023-11-21T09:40:30;10.80;;;4.83;;
10659;SDS011;5378;53.206;13.316;2023-11-21T09:43:17;7.73;;;4.30;;
10659;SDS011;5378;53.206;13.316;2023-11-21T09:46:05;9.50;;;5.10;;
10659;SDS011;5378;53.206;13.316;2023-11-21T09:48:56;7.63;;;4.17;;
10659;SDS011;5378;53.206;13.316;2023-11-21T09:51:46;9.70;;;4.60;;
10659;SDS011;5378;53.206;13.316;2023-11-21T09:54:35;9.20;;;5.40;;
10659;SDS011;5378;53.206;13.316;2023-11-21T09:57:24;8.80;;;4.87;;
10659;SDS011;5378;53.206;13.316;2023-11-21T10:00:11;9.20;;;5.30;;
10659;SDS011;5378;53.206;13.316;2023-11-21T10:03:02;9.27;;;4.30;;
10659;SDS011;5378;53.206;13.316;2023-11-21T10:05:50;10.53;;;4.87;;
10659;SDS011;5378;53.206;13.316;2023-11-21T10:08:40;10.97;;;5.20;;
10659;SDS011;5378;53.206;13.316;2023-11-21T10:11:30;12.00;;;5.60;;
10659;SDS011;5378;53.206;13.316;2023-11-21T10:14:20;8.30;;;4.30;;
10659;SDS011;5378;53.206;13.316;2023-11-21T10:17:11;11.87;;;5.50;;
10659;SDS011;5378;53.206;13.316;2023-11-21T10:20:01;11.30;;;5.00;;
10659;SDS011;5378;53.206;13.316;2023-11-21T10:22:51;8.50;;;4.57;;
10659;SDS011;5378;53.206;13.316;2023-11-21T10:25:39;9.50;;;3.93;;
10659;SDS011;5378;53.206;13.316;2023-11-21T10:28:26;8.80;;;4.43;;
10659;SDS011;5378;53.206;13.316;2023-11-21T10:31:14;7.97;;;4.30;;
10659;SDS011;5378;53.206;13.316;2023-11-21T10:34:12;8.07;;;4.10;;
10659;SDS011;5378;53.206;13.316;2023-11-21T10:37:07;13.23;;;5.37;;
10659;SDS011;5378;53.206;13.316;2023-11-21T10:39:57;8.73;;;4.53;;
10659;SDS011;5378;53.206;13.316;2023-11-21T10:42:45;8.67;;;4.97;;
10659;SDS011;5378;53.206;13.316;2023-11-21T10:45:32;8.80;;;4.30;;
10659;SDS011;5378;53.206;13.316;2023-11-21T10:48:20;9.47;;;4.33;;
10659;SDS011;5378;53.206;13.316;2023-11-21T10:51:09;8.17;;;4.07;;
10659;SDS011;5378;53.206;13.316;2023-11-21T10:53:56;10.73;;;5.40;;
10659;SDS011;5378;53.206;13.316;2023-11-21T10:56:45;12.90;;;5.83;;
10659;SDS011;5378;53.206;13.316;2023-11-21T10:59:36;8.23;;;4.83;;
10659;SDS011;5378;53.206;13.316;2023-11-21T11:02:24;7.77;;;5.03;;
10659;SDS011;5378;53.206;13.316;2023-11-21T11:05:14;8.50;;;4.43;;
10659;SDS011;5378;53.206;13.316;2023-11-21T11:08:06;9.20;;;4.93;;
10659;SDS011;5378;53.206;13.316;2023-11-21T11:10:55;9.80;;;5.27;;
10659;SDS011;5378;53.206;13.316;2023-11-21T11:13:44;12.40;;;5.40;;
10659;SDS011;5378;53.206;13.316;2023-11-21T11:16:32;8.40;;;4.70;;
10659;SDS011;5378;53.206;13.316;2023-11-21T11:19:20;10.57;;;4.90;;
10659;SDS011;5378;53.206;13.316;2023-11-21T11:22:12;7.70;;;4.50;;
10659;SDS011;5378;53.206;13.316;2023-11-21T11:25:26;8.77;;;5.27;;
10659;SDS011;5378;53.206;13.316;2023-11-21T11:28:21;10.60;;;5.00;;
10659;SDS011;5378;53.206;13.316;2023-11-21T11:31:19;11.33;;;5.23;;
10659;SDS011;5378;53.206;13.316;2023-11-21T11:34:20;13.43;;;4.73;;
10659;SDS011;5378;53.206;13.316;2023-11-21T11:37:14;6.70;;;3.27;;
10659;SDS011;5378;53.206;13.316;2023-11-21T11:40:03;8.00;;;4.43;;
10659;SDS011;5378;53.206;13.316;2023-11-21T11:42:56;7.90;;;3.60;;
10659;SDS011;5378;53.206;13.316;2023-11-21T11:45:44;8.80;;;3.43;;
10659;SDS011;5378;53.206;13.316;2023-11-21T11:48:37;5.67;;;3.10;;
10659;SDS011;5378;53.206;13.316;2023-11-21T11:51:25;8.37;;;3.40;;
10659;SDS011;5378;53.206;13.316;2023-11-21T11:54:14;6.70;;;3.00;;
10659;SDS011;5378;53.206;13.316;2023-11-21T11:57:03;5.60;;;2.90;;
10659;SDS011;5378;53.206;13.316;2023-11-21T12:03:01;6.30;;;3.03;;
10659;SDS011;5378;53.206;13.316;2023-11-21T12:05:50;3.50;;;2.40;;
10659;SDS011;5378;53.206;13.316;2023-11-21T12:08:43;4.57;;;2.70;;
10659;SDS011;5378;53.206;13.316;2023-11-21T12:11:32;3.33;;;1.70;;
10659;SDS011;5378;53.206;13.316;2023-11-21T12:14:21;6.30;;;2.77;;
10659;SDS011;5378;53.206;13.316;2023-11-21T12:17:08;5.20;;;2.40;;
10659;SDS011;5378;53.206;13.316;2023-11-21T12:20:01;3.80;;;1.73;;
10659;SDS011;5378;53.206;13.316;2023-11-21T12:22:49;4.60;;;2.60;;
10659;SDS011;5378;53.206;13.316;2023-11-21T12:25:37;5.00;;;2.30;;
10659;SDS011;5378;53.206;13.316;2023-11-21T12:28:29;3.53;;;1.77;;
10659;SDS011;5378;53.206;13.316;2023-11-21T12:31:15;7.93;;;3.30;;
10659;SDS011;5378;53.206;13.316;2023-11-21T12:34:03;3.83;;;2.27;;
10659;SDS011;5378;53.206;13.316;2023-11-21T12:36:52;3.60;;;2.83;;
10659;SDS011;5378;53.206;13.316;2023-11-21T12:39:40;5.13;;;2.20;;
10659;SDS011;5378;53.206;13.316;2023-11-21T12:42:28;4.33;;;2.27;;
10659;SDS011;5378;53.206;13.316;2023-11-21T12:45:21;5.60;;;3.00;;
10659;SDS011;5378;53.206;13.316;2023-11-21T12:48:11;4.80;;;2.50;;
10659;SDS011;5378;53.206;13.316;2023-11-21T12:50:58;8.83;;;2.60;;
10659;SDS011;5378;53.206;13.316;2023-11-21T12:53:46;3.23;;;2.03;;
10659;SDS011;5378;53.206;13.316;2023-11-21T12:56:33;5.90;;;2.80;;
10659;SDS011;5378;53.206;13.316;2023-11-21T12:59:21;4.13;;;2.20;;
10659;SDS011;5378;53.206;13.316;2023-11-21T13:02:09;5.10;;;2.23;;
10659;SDS011;5378;53.206;13.316;2023-11-21T13:04:59;3.17;;;1.80;;
10659;SDS011;5378;53.206;13.316;2023-11-21T13:07:51;4.13;;;2.60;;
10659;SDS011;5378;53.206;13.316;2023-11-21T13:10:40;4.83;;;2.80;;
10659;SDS011;5378;53.206;13.316;2023-11-21T13:13:32;5.40;;;2.33;;
10659;SDS011;5378;53.206;13.316;2023-11-21T13:16:19;5.20;;;2.47;;
10659;SDS011;5378;53.206;13.316;2023-11-21T13:19:08;5.90;;;2.93;;
10659;SDS011;5378;53.206;13.316;2023-11-21T13:21:56;9.37;;;2.90;;
10659;SDS011;5378;53.206;13.316;2023-11-21T13:24:44;6.03;;;2.40;;
10659;SDS011;5378;53.206;13.316;2023-11-21T13:27:31;6.30;;;2.80;;
10659;SDS011;5378;53.206;13.316;2023-11-21T13:30:20;9.63;;;2.30;;
10659;SDS011;5378;53.206;13.316;2023-11-21T13:33:12;5.50;;;2.40;;
10659;SDS011;5378;53.206;13.316;2023-11-21T13:36:05;4.20;;;1.70;;
10659;SDS011;5378;53.206;13.316;2023-11-21T13:38:55;6.37;;;2.20;;
10659;SDS011;5378;53.206;13.316;2023-11-21T13:41:44;5.37;;;3.00;;
10659;SDS011;5378;53.206;13.316;2023-11-21T13:44:33;3.77;;;2.00;;
10659;SDS011;5378;53.206;13.316;2023-11-21T13:47:24;4.10;;;2.40;;
10659;SDS011;5378;53.206;13.316;2023-11-21T13:50:15;2.97;;;1.77;;
10659;SDS011;5378;53.206;13.316;2023-11-21T13:53:10;3.53;;;1.70;;
10659;SDS011;5378;53.206;13.316;2023-11-21T13:56:03;2.83;;;1.73;;
10659;SDS011;5378;53.206;13.316;2023-11-21T13:58:51;4.30;;;2.10;;
10659;SDS011;5378;53.206;13.316;2023-11-21T14:01:39;4.17;;;2.10;;
10659;SDS011;5378;53.206;13.316;2023-11-21T14:04:40;5.23;;;2.90;;
10659;SDS011;5378;53.206;13.316;2023-11-21T14:07:40;6.40;;;2.33;;
10659;SDS011;5378;53.206;13.316;2023-11-21T14:10:34;4.53;;;2.03;;
10659;SDS011;5378;53.206;13.316;2023-11-21T14:13:28;6.87;;;2.27;;
10659;SDS011;5378;53.206;13.316;2023-11-21T14:16:15;4.47;;;2.20;;
10659;SDS011;5378;53.206;13.316;2023-11-21T14:19:03;4.90;;;2.10;;
10659;SDS011;5378;53.206;13.316;2023-11-21T14:22:01;4.80;;;2.47;;
10659;SDS011;5378;53.206;13.316;2023-11-21T14:24:48;3.53;;;2.13;;
10659;SDS011;5378;53.206;13.316;2023-11-21T14:27:39;5.80;;;2.30;;
10659;SDS011;5378;53.206;13.316;2023-11-21T14:30:26;7.43;;;2.90;;
10659;SDS011;5378;53.206;13.316;2023-11-21T14:33:15;4.93;;;2.57;;
10659;SDS011;5378;53.206;13.316;2023-11-21T14:36:02;2.87;;;1.93;;
10659;SDS011;5378;53.206;13.316;2023-11-21T14:38:50;4.80;;;2.30;;
10659;SDS011;5378;53.206;13.316;2023-11-21T14:41:36;8.00;;;3.10;;
10659;SDS011;5378;53.206;13.316;2023-11-21T14:44:26;4.80;;;2.40;;
10659;SDS011;5378;53.206;13.316;2023-11-21T14:47:18;4.77;;;2.73;;
10659;SDS011;5378;53.206;13.316;2023-11-21T14:50:10;5.83;;;2.63;;
10659;SDS011;5378;53.206;13.316;2023-11-21T14:53:26;4.33;;;2.53;;
10659;SDS011;5378;53.206;13.316;2023-11-21T14:56:28;4.37;;;2.53;;
10659;SDS011;5378;53.206;13.316;2023-11-21T14:59:16;9.00;;;2.87;;
10659;SDS011;5378;53.206;13.316;2023-11-21T15:02:04;6.70;;;1.90;;
10659;SDS011;5378;53.206;13.316;2023-11-21T15:05:01;9.43;;;2.80;;
10659;SDS011;5378;53.206;13.316;2023-11-21T15:07:48;4.30;;;1.77;;
10659;SDS011;5378;53.206;13.316;2023-11-21T15:10:35;6.47;;;3.53;;
10659;SDS011;5378;53.206;13.316;2023-11-21T15:13:31;7.53;;;2.63;;
10659;SDS011;5378;53.206;13.316;2023-11-21T15:16:18;10.27;;;3.33;;
10659;SDS011;5378;53.206;13.316;2023-11-21T15:19:07;4.60;;;2.57;;
10659;SDS011;5378;53.206;13.316;2023-11-21T15:21:55;7.13;;;3.07;;
10659;SDS011;5378;53.206;13.316;2023-11-21T15:24:42;6.53;;;2.60;;
10659;SDS011;5378;53.206;13.316;2023-11-21T15:27:31;7.13;;;2.87;;
10659;SDS011;5378;53.206;13.316;2023-11-21T15:30:19;11.33;;;3.73;;
10659;SDS011;5378;53.206;13.316;2023-11-21T15:33:09;8.83;;;3.87;;
10659;SDS011;5378;53.206;13.316;2023-11-21T15:35:59;4.60;;;2.90;;
10659;SDS011;5378;53.206;13.316;2023-11-21T15:38:46;4.33;;;3.00;;
10659;SDS011;5378;53.206;13.316;2023-11-21T15:41:33;6.20;;;2.90;;
10659;SDS011;5378;53.206;13.316;2023-11-21T15:44:20;5.83;;;3.17;;
10659;SDS011;5378;53.206;13.316;2023-11-21T15:47:08;7.63;;;3.60;;
10659;SDS011;5378;53.206;13.316;2023-11-21T15:49:55;5.27;;;3.70;;
10659;SDS011;5378;53.206;13.316;2023-11-21T15:52:44;6.90;;;2.80;;
10659;SDS011;5378;53.206;13.316;2023-11-21T15:55:32;6.70;;;3.23;;
10659;SDS011;5378;53.206;13.316;2023-11-21T15:58:21;5.70;;;2.90;;
10659;SDS011;5378;53.206;13.316;2023-11-21T16:01:10;8.70;;;3.40;;
10659;SDS011;5378;53.206;13.316;2023-11-21T16:03:58;11.53;;;4.00;;
10659;SDS011;5378;53.206;13.316;2023-11-21T16:06:46;9.07;;;3.97;;
10659;SDS011;5378;53.206;13.316;2023-11-21T16:09:34;4.43;;;2.67;;
10659;SDS011;5378;53.206;13.316;2023-11-21T16:12:23;11.70;;;3.40;;
10659;SDS011;5378;53.206;13.316;2023-11-21T16:15:11;7.50;;;3.50;;
10659;SDS011;5378;53.206;13.316;2023-11-21T16:17:58;5.73;;;2.97;;
10659;SDS011;5378;53.206;13.316;2023-11-21T16:20:45;6.10;;;2.80;;
10659;SDS011;5378;53.206;13.316;2023-11-21T16:23:32;5.40;;;2.67;;
10659;SDS011;5378;53.206;13.316;2023-11-21T16:26:20;5.70;;;3.13;;
10659;SDS011;5378;53.206;13.316;2023-11-21T16:29:08;8.63;;;3.27;;
10659;SDS011;5378;53.206;13.316;2023-11-21T16:31:57;4.40;;;2.30;;
10659;SDS011;5378;53.206;13.316;2023-11-21T16:34:45;5.80;;;3.33;;
10659;SDS011;5378;53.206;13.316;2023-11-21T16:37:34;4.80;;;2.50;;
10659;SDS011;5378;53.206;13.316;2023-11-21T16:40:21;5.97;;;2.73;;
10659;SDS011;5378;53.206;13.316;2023-11-21T16:43:09;7.70;;;2.80;;
10659;SDS011;5378;53.206;13.316;2023-11-21T16:45:57;7.70;;;3.77;;
10659;SDS011;5378;53.206;13.316;2023-11-21T16:48:44;6.03;;;3.30;;
10659;SDS011;5378;53.206;13.316;2023-11-21T16:51:31;4.73;;;2.50;;